sensor_id;sensor_type;location;lat;lon;timestamp;P1;durP1;ratioP1;P2;durP2;ratioP2
11957;SDS011;6039;52.576;13.348;2023-04-06T00:02:38;5.73;;;3.40;;
11957;SDS011;6039;52.576;13.348;2023-04-06T00:07:42;5.33;;;3.13;;
11957;SDS011;6039;52.576;13.348;2023-04-06T00:12:48;5.33;;;3.17;;
11957;SDS011;6039;52.576;13.348;2023-04-06T00:17:52;4.93;;;3.13;;
11957;SDS011;6039;52.576;13.348;2023-04-06T00:22:56;4.10;;;2.90;;
11957;SDS011;6039;52.576;13.348;2023-04-06T00:28:03;5.87;;;3.33;;
11957;SDS011;6039;52.576;13.348;2023-04-06T00:33:07;4.47;;;3.07;;
11957;SDS011;6039;52.576;13.348;2023-04-06T00:38:11;4.73;;;3.00;;
11957;SDS011;6039;52.576;13.348;2023-04-06T00:43:18;4.97;;;3.20;;
11957;SDS011;6039;52.576;13.348;2023-04-06T00:48:22;5.00;;;3.03;;
11957;SDS011;6039;52.576;13.348;2023-04-06T00:53:26;4.37;;;2.90;;
11957;SDS011;6039;52.576;13.348;2023-04-06T00:58:32;4.83;;;3.40;;
11957;SDS011;6039;52.576;13.348;2023-04-06T01:03:38;4.47;;;3.30;;
11957;SDS011;6039;52.576;13.348;2023-04-06T01:08:44;8.00;;;3.23;;
11957;SDS011;6039;52.576;13.348;2023-04-06T01:13:50;3.77;;;2.87;;
11957;SDS011;6039;52.576;13.348;2023-04-06T01:18:55;4.93;;;2.87;;
11957;SDS011;6039;52.576;13.348;2023-04-06T01:24:01;4.83;;;2.73;;
11957;SDS011;6039;52.576;13.348;2023-04-06T01:29:06;5.00;;;3.10;;
11957;SDS011;6039;52.576;13.348;2023-04-06T01:34:10;4.57;;;2.53;;
11957;SDS011;6039;52.576;13.348;2023-04-06T01:39:16;5.83;;;3.50;;
11957;SDS011;6039;52.576;13.348;2023-04-06T01:44:20;5.17;;;3.10;;
11957;SDS011;6039;52.576;13.348;2023-04-06T01:49:24;4.00;;;2.70;;
11957;SDS011;6039;52.576;13.348;2023-04-06T01:54:31;4.07;;;2.93;;
11957;SDS011;6039;52.576;13.348;2023-04-06T01:59:35;4.53;;;3.10;;
11957;SDS011;6039;52.576;13.348;2023-04-06T02:04:39;5.63;;;3.13;;
11957;SDS011;6039;52.576;13.348;2023-04-06T02:09:45;4.10;;;2.97;;
11957;SDS011;6039;52.576;13.348;2023-04-06T02:14:49;5.67;;;2.87;;
11957;SDS011;6039;52.576;13.348;2023-04-06T02:19:53;5.53;;;3.17;;
11957;SDS011;6039;52.576;13.348;2023-04-06T02:25:00;4.63;;;2.97;;
11957;SDS011;6039;52.576;13.348;2023-04-06T02:30:04;6.20;;;3.10;;
11957;SDS011;6039;52.576;13.348;2023-04-06T02:35:09;5.63;;;3.07;;
11957;SDS011;6039;52.576;13.348;2023-04-06T02:40:16;5.30;;;3.47;;
11957;SDS011;6039;52.576;13.348;2023-04-06T02:45:20;6.97;;;3.30;;
11957;SDS011;6039;52.576;13.348;2023-04-06T02:50:24;5.47;;;3.63;;
11957;SDS011;6039;52.576;13.348;2023-04-06T02:55:31;3.77;;;2.83;;
11957;SDS011;6039;52.576;13.348;2023-04-06T03:00:35;4.27;;;2.93;;
11957;SDS011;6039;52.576;13.348;2023-04-06T03:05:39;7.40;;;3.27;;
11957;SDS011;6039;52.576;13.348;2023-04-06T03:10:46;7.57;;;3.60;;
11957;SDS011;6039;52.576;13.348;2023-04-06T03:15:50;8.50;;;3.60;;
11957;SDS011;6039;52.576;13.348;2023-04-06T03:20:54;4.20;;;2.80;;
11957;SDS011;6039;52.576;13.348;2023-04-06T03:26:00;5.87;;;3.20;;
11957;SDS011;6039;52.576;13.348;2023-04-06T03:31:05;5.67;;;3.43;;
11957;SDS011;6039;52.576;13.348;2023-04-06T03:36:09;6.90;;;3.83;;
11957;SDS011;6039;52.576;13.348;2023-04-06T03:41:15;5.23;;;3.53;;
11957;SDS011;6039;52.576;13.348;2023-04-06T03:46:19;4.70;;;3.07;;
11957;SDS011;6039;52.576;13.348;2023-04-06T03:51:23;4.60;;;3.13;;
11957;SDS011;6039;52.576;13.348;2023-04-06T03:56:30;5.00;;;3.07;;
11957;SDS011;6039;52.576;13.348;2023-04-06T04:01:34;5.40;;;3.57;;
11957;SDS011;6039;52.576;13.348;2023-04-06T04:06:39;6.00;;;3.63;;
11957;SDS011;6039;52.576;13.348;2023-04-06T04:11:45;6.63;;;3.63;;
11957;SDS011;6039;52.576;13.348;2023-04-06T04:16:49;6.33;;;3.80;;
11957;SDS011;6039;52.576;13.348;2023-04-06T04:21:53;7.80;;;4.23;;
11957;SDS011;6039;52.576;13.348;2023-04-06T04:27:00;6.00;;;3.73;;
11957;SDS011;6039;52.576;13.348;2023-04-06T04:32:04;5.13;;;3.83;;
11957;SDS011;6039;52.576;13.348;2023-04-06T04:37:09;5.23;;;3.83;;
11957;SDS011;6039;52.576;13.348;2023-04-06T04:42:15;7.97;;;4.40;;
11957;SDS011;6039;52.576;13.348;2023-04-06T04:47:19;7.30;;;4.10;;
11957;SDS011;6039;52.576;13.348;2023-04-06T04:52:23;7.00;;;4.40;;
11957;SDS011;6039;52.576;13.348;2023-04-06T04:57:30;8.37;;;4.90;;
11957;SDS011;6039;52.576;13.348;2023-04-06T05:02:34;6.30;;;3.97;;
11957;SDS011;6039;52.576;13.348;2023-04-06T05:07:38;7.43;;;4.77;;
11957;SDS011;6039;52.576;13.348;2023-04-06T05:12:44;7.30;;;5.03;;
11957;SDS011;6039;52.576;13.348;2023-04-06T05:17:48;8.17;;;5.53;;
11957;SDS011;6039;52.576;13.348;2023-04-06T05:22:53;10.10;;;5.37;;
11957;SDS011;6039;52.576;13.348;2023-04-06T05:27:59;14.00;;;5.73;;
11957;SDS011;6039;52.576;13.348;2023-04-06T05:33:03;13.13;;;6.00;;
11957;SDS011;6039;52.576;13.348;2023-04-06T05:38:08;8.33;;;5.83;;
11957;SDS011;6039;52.576;13.348;2023-04-06T05:43:15;10.83;;;5.73;;
11957;SDS011;6039;52.576;13.348;2023-04-06T05:48:19;11.37;;;6.47;;
11957;SDS011;6039;52.576;13.348;2023-04-06T05:53:23;11.93;;;6.00;;
11957;SDS011;6039;52.576;13.348;2023-04-06T05:58:31;12.70;;;6.30;;
11957;SDS011;6039;52.576;13.348;2023-04-06T06:03:35;12.03;;;6.33;;
11957;SDS011;6039;52.576;13.348;2023-04-06T06:08:39;9.93;;;6.10;;
11957;SDS011;6039;52.576;13.348;2023-04-06T06:13:46;8.90;;;5.97;;
11957;SDS011;6039;52.576;13.348;2023-04-06T06:18:50;9.63;;;5.67;;
11957;SDS011;6039;52.576;13.348;2023-04-06T06:23:54;13.50;;;6.33;;
11957;SDS011;6039;52.576;13.348;2023-04-06T06:29:00;12.33;;;5.77;;
11957;SDS011;6039;52.576;13.348;2023-04-06T06:34:05;9.87;;;5.80;;
11957;SDS011;6039;52.576;13.348;2023-04-06T06:39:10;8.50;;;5.63;;
11957;SDS011;6039;52.576;13.348;2023-04-06T06:44:17;6.97;;;4.77;;
11957;SDS011;6039;52.576;13.348;2023-04-06T06:49:21;7.60;;;5.30;;
11957;SDS011;6039;52.576;13.348;2023-04-06T06:54:25;7.23;;;5.10;;
11957;SDS011;6039;52.576;13.348;2023-04-06T06:59:32;6.70;;;4.60;;
11957;SDS011;6039;52.576;13.348;2023-04-06T07:04:36;8.67;;;5.03;;
11957;SDS011;6039;52.576;13.348;2023-04-06T07:09:40;7.53;;;4.83;;
11957;SDS011;6039;52.576;13.348;2023-04-06T07:14:46;7.20;;;4.67;;
11957;SDS011;6039;52.576;13.348;2023-04-06T07:19:50;6.20;;;4.40;;
11957;SDS011;6039;52.576;13.348;2023-04-06T07:24:54;7.70;;;5.13;;
11957;SDS011;6039;52.576;13.348;2023-04-06T07:30:01;4.83;;;4.10;;
11957;SDS011;6039;52.576;13.348;2023-04-06T07:35:05;6.23;;;4.10;;
11957;SDS011;6039;52.576;13.348;2023-04-06T07:40:10;6.30;;;3.80;;
11957;SDS011;6039;52.576;13.348;2023-04-06T07:45:17;5.80;;;3.33;;
11957;SDS011;6039;52.576;13.348;2023-04-06T07:50:21;4.83;;;4.07;;
11957;SDS011;6039;52.576;13.348;2023-04-06T07:55:25;5.70;;;3.80;;
11957;SDS011;6039;52.576;13.348;2023-04-06T08:00:32;6.53;;;3.70;;
11957;SDS011;6039;52.576;13.348;2023-04-06T08:05:36;4.97;;;3.50;;
11957;SDS011;6039;52.576;13.348;2023-04-06T08:10:40;5.80;;;3.80;;
11957;SDS011;6039;52.576;13.348;2023-04-06T08:15:46;5.17;;;3.40;;
11957;SDS011;6039;52.576;13.348;2023-04-06T08:20:50;5.53;;;3.40;;
11957;SDS011;6039;52.576;13.348;2023-04-06T08:25:54;4.60;;;3.30;;
11957;SDS011;6039;52.576;13.348;2023-04-06T08:31:02;4.67;;;3.07;;
11957;SDS011;6039;52.576;13.348;2023-04-06T08:36:08;3.60;;;2.60;;
11957;SDS011;6039;52.576;13.348;2023-04-06T08:41:13;3.60;;;3.03;;
11957;SDS011;6039;52.576;13.348;2023-04-06T08:46:20;4.43;;;2.60;;
11957;SDS011;6039;52.576;13.348;2023-04-06T08:51:29;2.60;;;2.23;;
11957;SDS011;6039;52.576;13.348;2023-04-06T08:56:33;3.40;;;2.60;;
11957;SDS011;6039;52.576;13.348;2023-04-06T09:01:43;3.13;;;2.17;;
11957;SDS011;6039;52.576;13.348;2023-04-06T09:06:48;2.77;;;2.13;;
11957;SDS011;6039;52.576;13.348;2023-04-06T09:11:52;2.20;;;2.00;;
11957;SDS011;6039;52.576;13.348;2023-04-06T09:17:04;4.33;;;2.63;;
11957;SDS011;6039;52.576;13.348;2023-04-06T09:22:08;2.80;;;2.30;;
11957;SDS011;6039;52.576;13.348;2023-04-06T09:27:13;3.07;;;2.27;;
11957;SDS011;6039;52.576;13.348;2023-04-06T09:32:19;3.23;;;1.97;;
11957;SDS011;6039;52.576;13.348;2023-04-06T09:37:23;2.77;;;2.17;;
11957;SDS011;6039;52.576;13.348;2023-04-06T09:42:30;2.73;;;2.10;;
11957;SDS011;6039;52.576;13.348;2023-04-06T09:47:37;3.47;;;1.90;;
11957;SDS011;6039;52.576;13.348;2023-04-06T09:52:46;2.53;;;1.93;;
11957;SDS011;6039;52.576;13.348;2023-04-06T09:57:53;3.07;;;1.87;;
11957;SDS011;6039;52.576;13.348;2023-04-06T10:03:04;2.40;;;1.90;;
11957;SDS011;6039;52.576;13.348;2023-04-06T10:08:11;5.30;;;1.93;;
11957;SDS011;6039;52.576;13.348;2023-04-06T10:13:17;4.17;;;2.00;;
11957;SDS011;6039;52.576;13.348;2023-04-06T10:18:25;3.43;;;2.27;;
11957;SDS011;6039;52.576;13.348;2023-04-06T10:23:31;1.90;;;1.60;;
11957;SDS011;6039;52.576;13.348;2023-04-06T10:28:36;1.70;;;1.60;;
11957;SDS011;6039;52.576;13.348;2023-04-06T10:33:52;1.73;;;1.37;;
11957;SDS011;6039;52.576;13.348;2023-04-06T10:38:57;2.00;;;1.67;;
11957;SDS011;6039;52.576;13.348;2023-04-06T10:44:02;2.20;;;1.60;;
11957;SDS011;6039;52.576;13.348;2023-04-06T10:49:12;1.80;;;1.60;;
11957;SDS011;6039;52.576;13.348;2023-04-06T10:54:16;2.20;;;1.57;;
11957;SDS011;6039;52.576;13.348;2023-04-06T10:59:20;1.93;;;1.73;;
11957;SDS011;6039;52.576;13.348;2023-04-06T11:04:27;3.13;;;1.93;;
11957;SDS011;6039;52.576;13.348;2023-04-06T11:09:31;2.53;;;1.80;;
11957;SDS011;6039;52.576;13.348;2023-04-06T11:14:36;1.97;;;1.70;;
11957;SDS011;6039;52.576;13.348;2023-04-06T11:19:44;2.07;;;1.60;;
11957;SDS011;6039;52.576;13.348;2023-04-06T11:24:48;3.30;;;1.60;;
11957;SDS011;6039;52.576;13.348;2023-04-06T11:29:52;2.53;;;1.77;;
11957;SDS011;6039;52.576;13.348;2023-04-06T11:34:58;2.60;;;1.57;;
11957;SDS011;6039;52.576;13.348;2023-04-06T11:40:03;2.60;;;2.00;;
11957;SDS011;6039;52.576;13.348;2023-04-06T11:45:10;2.47;;;1.80;;
11957;SDS011;6039;52.576;13.348;2023-04-06T11:50:21;2.60;;;1.80;;
11957;SDS011;6039;52.576;13.348;2023-04-06T11:55:25;2.93;;;2.13;;
11957;SDS011;6039;52.576;13.348;2023-04-06T12:00:29;2.63;;;1.93;;
11957;SDS011;6039;52.576;13.348;2023-04-06T12:05:37;2.20;;;1.87;;
11957;SDS011;6039;52.576;13.348;2023-04-06T12:10:41;3.10;;;2.40;;
11957;SDS011;6039;52.576;13.348;2023-04-06T12:15:45;2.33;;;1.67;;
11957;SDS011;6039;52.576;13.348;2023-04-06T12:20:52;1.70;;;1.57;;
11957;SDS011;6039;52.576;13.348;2023-04-06T12:25:56;2.57;;;1.83;;
11957;SDS011;6039;52.576;13.348;2023-04-06T12:31:01;4.33;;;2.30;;
11957;SDS011;6039;52.576;13.348;2023-04-06T12:36:10;2.50;;;2.10;;
11957;SDS011;6039;52.576;13.348;2023-04-06T12:41:15;5.10;;;2.13;;
11957;SDS011;6039;52.576;13.348;2023-04-06T12:46:20;3.37;;;2.10;;
11957;SDS011;6039;52.576;13.348;2023-04-06T12:51:27;4.27;;;2.30;;
11957;SDS011;6039;52.576;13.348;2023-04-06T12:56:31;3.03;;;2.00;;
11957;SDS011;6039;52.576;13.348;2023-04-06T13:01:36;2.67;;;2.00;;
11957;SDS011;6039;52.576;13.348;2023-04-06T13:06:43;2.87;;;2.17;;
11957;SDS011;6039;52.576;13.348;2023-04-06T13:11:47;2.27;;;1.90;;
11957;SDS011;6039;52.576;13.348;2023-04-06T13:16:51;2.37;;;1.90;;
11957;SDS011;6039;52.576;13.348;2023-04-06T13:21:58;2.93;;;1.90;;
11957;SDS011;6039;52.576;13.348;2023-04-06T13:27:02;2.40;;;2.10;;
11957;SDS011;6039;52.576;13.348;2023-04-06T13:32:06;2.40;;;2.00;;
11957;SDS011;6039;52.576;13.348;2023-04-06T13:37:13;3.07;;;2.10;;
11957;SDS011;6039;52.576;13.348;2023-04-06T13:42:17;2.67;;;2.00;;
11957;SDS011;6039;52.576;13.348;2023-04-06T13:47:21;3.53;;;2.00;;
11957;SDS011;6039;52.576;13.348;2023-04-06T13:52:28;2.10;;;1.90;;
11957;SDS011;6039;52.576;13.348;2023-04-06T13:57:32;2.57;;;2.10;;
11957;SDS011;6039;52.576;13.348;2023-04-06T14:02:36;3.57;;;2.17;;
11957;SDS011;6039;52.576;13.348;2023-04-06T14:07:42;2.20;;;2.00;;
11957;SDS011;6039;52.576;13.348;2023-04-06T14:12:46;3.07;;;2.13;;
11957;SDS011;6039;52.576;13.348;2023-04-06T14:17:50;6.20;;;2.17;;
11957;SDS011;6039;52.576;13.348;2023-04-06T14:22:56;2.63;;;2.27;;
11957;SDS011;6039;52.576;13.348;2023-04-06T14:28:02;2.97;;;2.13;;
11957;SDS011;6039;52.576;13.348;2023-04-06T14:33:06;2.60;;;2.20;;
11957;SDS011;6039;52.576;13.348;2023-04-06T14:38:13;2.83;;;2.27;;
11957;SDS011;6039;52.576;13.348;2023-04-06T14:43:17;3.53;;;2.60;;
11957;SDS011;6039;52.576;13.348;2023-04-06T14:48:21;3.13;;;2.30;;
11957;SDS011;6039;52.576;13.348;2023-04-06T14:53:28;3.03;;;2.30;;
11957;SDS011;6039;52.576;13.348;2023-04-06T14:58:32;2.60;;;2.23;;
11957;SDS011;6039;52.576;13.348;2023-04-06T15:03:36;4.57;;;2.87;;
11957;SDS011;6039;52.576;13.348;2023-04-06T15:08:42;2.83;;;2.33;;
11957;SDS011;6039;52.576;13.348;2023-04-06T15:13:47;2.73;;;2.23;;
11957;SDS011;6039;52.576;13.348;2023-04-06T15:18:51;4.23;;;2.43;;
11957;SDS011;6039;52.576;13.348;2023-04-06T15:23:57;2.27;;;2.00;;
11957;SDS011;6039;52.576;13.348;2023-04-06T15:29:02;2.93;;;2.20;;
11957;SDS011;6039;52.576;13.348;2023-04-06T15:34:06;4.17;;;2.27;;
11957;SDS011;6039;52.576;13.348;2023-04-06T15:39:12;2.97;;;2.13;;
11957;SDS011;6039;52.576;13.348;2023-04-06T15:44:16;2.60;;;2.13;;
11957;SDS011;6039;52.576;13.348;2023-04-06T15:49:20;3.77;;;2.20;;
11957;SDS011;6039;52.576;13.348;2023-04-06T15:54:27;2.67;;;2.10;;
11957;SDS011;6039;52.576;13.348;2023-04-06T15:59:32;2.20;;;1.93;;
11957;SDS011;6039;52.576;13.348;2023-04-06T16:04:36;4.23;;;2.20;;
11957;SDS011;6039;52.576;13.348;2023-04-06T16:09:43;2.97;;;2.33;;
11957;SDS011;6039;52.576;13.348;2023-04-06T16:14:46;3.23;;;2.30;;
11957;SDS011;6039;52.576;13.348;2023-04-06T16:19:50;3.00;;;2.10;;
11957;SDS011;6039;52.576;13.348;2023-04-06T16:24:57;3.17;;;2.23;;
11957;SDS011;6039;52.576;13.348;2023-04-06T16:30:01;3.10;;;2.23;;
11957;SDS011;6039;52.576;13.348;2023-04-06T16:35:06;4.57;;;2.30;;
11957;SDS011;6039;52.576;13.348;2023-04-06T16:40:13;3.60;;;2.43;;
11957;SDS011;6039;52.576;13.348;2023-04-06T16:45:18;2.13;;;1.70;;
11957;SDS011;6039;52.576;13.348;2023-04-06T16:50:22;2.67;;;1.97;;
11957;SDS011;6039;52.576;13.348;2023-04-06T16:55:28;2.60;;;1.90;;
11957;SDS011;6039;52.576;13.348;2023-04-06T17:00:32;3.13;;;2.27;;
11957;SDS011;6039;52.576;13.348;2023-04-06T17:05:39;3.97;;;2.33;;
11957;SDS011;6039;52.576;13.348;2023-04-06T17:10:46;3.07;;;2.10;;
11957;SDS011;6039;52.576;13.348;2023-04-06T17:15:50;2.30;;;1.90;;
11957;SDS011;6039;52.576;13.348;2023-04-06T17:20:54;3.27;;;1.90;;
11957;SDS011;6039;52.576;13.348;2023-04-06T17:26:04;2.63;;;1.83;;
11957;SDS011;6039;52.576;13.348;2023-04-06T17:31:09;4.30;;;2.30;;
11957;SDS011;6039;52.576;13.348;2023-04-06T17:36:13;2.90;;;2.07;;
11957;SDS011;6039;52.576;13.348;2023-04-06T17:41:20;2.60;;;2.17;;
11957;SDS011;6039;52.576;13.348;2023-04-06T17:46:23;3.50;;;2.33;;
11957;SDS011;6039;52.576;13.348;2023-04-06T17:51:27;3.73;;;2.40;;
11957;SDS011;6039;52.576;13.348;2023-04-06T17:56:34;3.13;;;2.40;;
11957;SDS011;6039;52.576;13.348;2023-04-06T18:01:38;2.93;;;2.20;;
11957;SDS011;6039;52.576;13.348;2023-04-06T18:06:42;5.20;;;2.47;;
11957;SDS011;6039;52.576;13.348;2023-04-06T18:11:49;5.53;;;3.40;;
11957;SDS011;6039;52.576;13.348;2023-04-06T18:16:53;4.50;;;2.77;;
11957;SDS011;6039;52.576;13.348;2023-04-06T18:21:57;4.40;;;2.73;;
11957;SDS011;6039;52.576;13.348;2023-04-06T18:27:04;5.33;;;3.47;;
11957;SDS011;6039;52.576;13.348;2023-04-06T18:32:08;5.07;;;3.73;;
11957;SDS011;6039;52.576;13.348;2023-04-06T18:37:12;4.73;;;3.33;;
11957;SDS011;6039;52.576;13.348;2023-04-06T18:42:18;5.43;;;3.47;;
11957;SDS011;6039;52.576;13.348;2023-04-06T18:47:22;5.23;;;3.60;;
11957;SDS011;6039;52.576;13.348;2023-04-06T18:52:26;4.70;;;3.30;;
11957;SDS011;6039;52.576;13.348;2023-04-06T18:57:33;6.50;;;3.70;;
11957;SDS011;6039;52.576;13.348;2023-04-06T19:02:37;5.53;;;3.87;;
11957;SDS011;6039;52.576;13.348;2023-04-06T19:07:41;6.57;;;4.23;;
11957;SDS011;6039;52.576;13.348;2023-04-06T19:12:51;6.33;;;3.90;;
11957;SDS011;6039;52.576;13.348;2023-04-06T19:17:57;6.23;;;3.97;;
11957;SDS011;6039;52.576;13.348;2023-04-06T19:23:01;8.70;;;4.87;;
11957;SDS011;6039;52.576;13.348;2023-04-06T19:28:08;7.43;;;4.70;;
11957;SDS011;6039;52.576;13.348;2023-04-06T19:33:13;7.23;;;4.70;;
11957;SDS011;6039;52.576;13.348;2023-04-06T19:38:17;7.03;;;4.27;;
11957;SDS011;6039;52.576;13.348;2023-04-06T19:43:24;6.57;;;4.43;;
11957;SDS011;6039;52.576;13.348;2023-04-06T19:48:28;6.30;;;4.40;;
11957;SDS011;6039;52.576;13.348;2023-04-06T19:53:32;5.63;;;4.30;;
11957;SDS011;6039;52.576;13.348;2023-04-06T19:58:39;7.30;;;4.90;;
11957;SDS011;6039;52.576;13.348;2023-04-06T20:03:44;7.83;;;5.30;;
11957;SDS011;6039;52.576;13.348;2023-04-06T20:08:48;9.43;;;5.20;;
11957;SDS011;6039;52.576;13.348;2023-04-06T20:13:58;8.00;;;5.53;;
11957;SDS011;6039;52.576;13.348;2023-04-06T20:19:01;10.30;;;5.80;;
11957;SDS011;6039;52.576;13.348;2023-04-06T20:24:05;9.23;;;5.70;;
11957;SDS011;6039;52.576;13.348;2023-04-06T20:29:13;9.13;;;5.53;;
11957;SDS011;6039;52.576;13.348;2023-04-06T20:34:17;9.03;;;6.10;;
11957;SDS011;6039;52.576;13.348;2023-04-06T20:39:23;10.93;;;6.33;;
11957;SDS011;6039;52.576;13.348;2023-04-06T20:44:31;9.50;;;6.10;;
11957;SDS011;6039;52.576;13.348;2023-04-06T20:49:35;10.03;;;5.93;;
11957;SDS011;6039;52.576;13.348;2023-04-06T20:54:39;13.03;;;7.17;;
11957;SDS011;6039;52.576;13.348;2023-04-06T20:59:45;8.57;;;6.27;;
11957;SDS011;6039;52.576;13.348;2023-04-06T21:04:49;10.50;;;7.37;;
11957;SDS011;6039;52.576;13.348;2023-04-06T21:09:53;13.40;;;7.27;;
11957;SDS011;6039;52.576;13.348;2023-04-06T21:15:00;10.80;;;7.23;;
11957;SDS011;6039;52.576;13.348;2023-04-06T21:20:04;12.80;;;8.07;;
11957;SDS011;6039;52.576;13.348;2023-04-06T21:25:09;15.83;;;9.03;;
11957;SDS011;6039;52.576;13.348;2023-04-06T21:30:16;16.47;;;8.30;;
11957;SDS011;6039;52.576;13.348;2023-04-06T21:35:19;16.53;;;8.87;;
11957;SDS011;6039;52.576;13.348;2023-04-06T21:40:23;15.60;;;8.83;;
11957;SDS011;6039;52.576;13.348;2023-04-06T21:45:30;15.73;;;8.97;;
11957;SDS011;6039;52.576;13.348;2023-04-06T21:50:37;15.87;;;8.67;;
11957;SDS011;6039;52.576;13.348;2023-04-06T21:55:42;16.50;;;8.97;;
11957;SDS011;6039;52.576;13.348;2023-04-06T22:00:49;16.83;;;9.03;;
11957;SDS011;6039;52.576;13.348;2023-04-06T22:05:53;16.07;;;9.03;;
11957;SDS011;6039;52.576;13.348;2023-04-06T22:10:57;14.10;;;8.23;;
11957;SDS011;6039;52.576;13.348;2023-04-06T22:16:03;16.07;;;8.67;;
11957;SDS011;6039;52.576;13.348;2023-04-06T22:21:08;14.20;;;8.37;;
11957;SDS011;6039;52.576;13.348;2023-04-06T22:26:12;14.50;;;8.77;;
11957;SDS011;6039;52.576;13.348;2023-04-06T22:31:18;14.87;;;8.90;;
11957;SDS011;6039;52.576;13.348;2023-04-06T22:36:22;13.17;;;8.13;;
11957;SDS011;6039;52.576;13.348;2023-04-06T22:41:26;15.30;;;9.07;;
11957;SDS011;6039;52.576;13.348;2023-04-06T22:46:34;15.00;;;8.60;;
11957;SDS011;6039;52.576;13.348;2023-04-06T22:51:38;14.80;;;9.40;;
11957;SDS011;6039;52.576;13.348;2023-04-06T22:56:42;16.03;;;9.53;;
11957;SDS011;6039;52.576;13.348;2023-04-06T23:01:48;15.23;;;9.23;;
11957;SDS011;6039;52.576;13.348;2023-04-06T23:06:52;14.40;;;9.07;;
11957;SDS011;6039;52.576;13.348;2023-04-06T23:11:56;14.67;;;8.73;;
11957;SDS011;6039;52.576;13.348;2023-04-06T23:17:03;12.67;;;7.93;;
11957;SDS011;6039;52.576;13.348;2023-04-06T23:22:08;12.50;;;7.90;;
11957;SDS011;6039;52.576;13.348;2023-04-06T23:27:12;14.47;;;7.87;;
11957;SDS011;6039;52.576;13.348;2023-04-06T23:32:18;14.67;;;7.47;;
11957;SDS011;6039;52.576;13.348;2023-04-06T23:37:22;12.87;;;7.63;;
11957;SDS011;6039;52.576;13.348;2023-04-06T23:42:26;14.07;;;8.40;;
11957;SDS011;6039;52.576;13.348;2023-04-06T23:47:33;13.47;;;8.00;;
11957;SDS011;6039;52.576;13.348;2023-04-06T23:52:37;15.80;;;7.97;;
11957;SDS011;6039;52.576;13.348;2023-04-06T23:57:41;13.70;;;7.70;;
